Time;durP1;ratioP1;P1;durP2;ratioP2;P2;SDS_P1;SDS_P2;PMS_P1;PMS_P2;Temp;Humidity;BMP_temperature;BMP_pressure;BME280_temperature;BME280_humidity;BME280_pressure;Samples;Min_cycle;Max_cycle;Signal;HPM_P1;HPM_P2
2021/11/03 00:00:29;;;;;;;875.73;812.03;;;6.70;99.90;;;;;;4992337;28;20208;-74
2021/11/03 00:02:55;;;;;;;832.37;770.23;;;6.70;99.90;;;;;;4991165;28;20186;-74
2021/11/03 00:05:21;;;;;;;856.07;790.30;;;6.70;99.90;;;;;;4991194;28;20192;-75
2021/11/03 00:07:46;;;;;;;872.03;805.87;;;6.70;99.90;;;;;;4991013;28;20259;-75
2021/11/03 00:10:13;;;;;;;844.60;778.53;;;6.70;99.90;;;;;;4990993;28;20192;-73
2021/11/03 00:12:39;;;;;;;872.80;805.77;;;6.70;99.90;;;;;;4991182;28;20209;-74
2021/11/03 00:15:05;;;;;;;878.03;812.07;;;6.70;99.90;;;;;;4991092;28;20640;-74
2021/11/03 00:17:30;;;;;;;915.40;844.80;;;6.70;99.90;;;;;;4990872;28;20179;-74
2021/11/03 00:19:56;;;;;;;883.67;819.27;;;6.70;99.90;;;;;;4991894;28;20215;-76
2021/11/03 00:22:21;;;;;;;848.33;784.73;;;6.70;99.90;;;;;;4992145;28;20183;-75
2021/11/03 00:24:47;;;;;;;866.40;801.40;;;6.70;99.90;;;;;;4990817;28;20211;-74
2021/11/03 00:27:12;;;;;;;828.80;769.27;;;6.60;99.90;;;;;;4991100;28;20172;-75
2021/11/03 00:29:38;;;;;;;829.30;767.87;;;6.60;99.90;;;;;;4990788;28;20632;-75
2021/11/03 00:32:05;;;;;;;865.13;801.87;;;6.60;99.90;;;;;;4990928;28;20209;-75
2021/11/03 00:34:30;;;;;;;859.83;794.83;;;6.60;99.90;;;;;;4990859;28;20578;-74
2021/11/03 00:36:56;;;;;;;925.30;854.27;;;6.60;99.90;;;;;;4990855;28;20177;-75
2021/11/03 00:39:22;;;;;;;894.00;824.60;;;6.50;99.90;;;;;;4990423;28;20235;-75
2021/11/03 00:41:49;;;;;;;846.03;780.00;;;6.50;99.90;;;;;;4990840;28;20177;-75
2021/11/03 00:44:14;;;;;;;899.53;831.00;;;6.50;99.90;;;;;;4990806;28;20181;-75
2021/11/03 00:46:40;;;;;;;847.97;783.10;;;6.60;99.90;;;;;;4991326;28;20186;-75
2021/11/03 00:49:05;;;;;;;925.60;852.53;;;6.50;99.90;;;;;;4994121;28;20192;-74
2021/11/03 00:51:31;;;;;;;904.90;832.13;;;6.50;99.90;;;;;;5010762;28;20176;-73
2021/11/03 00:53:56;;;;;;;898.70;828.60;;;6.50;99.90;;;;;;4994073;28;20530;-74
2021/11/03 00:56:22;;;;;;;939.70;864.47;;;6.50;99.90;;;;;;4994329;28;20635;-75
2021/11/03 00:58:47;;;;;;;905.50;835.23;;;6.50;99.90;;;;;;4993610;28;20215;-73
2021/11/03 01:01:13;;;;;;;883.67;815.10;;;6.40;99.90;;;;;;5019099;22;20233;-81
2021/11/03 01:03:39;;;;;;;850.13;785.50;;;6.40;99.90;;;;;;4979325;28;20183;-81
2021/11/03 01:06:04;;;;;;;866.77;799.20;;;6.30;99.90;;;;;;4979121;28;20215;-81
2021/11/03 01:08:30;;;;;;;906.90;834.57;;;6.20;99.90;;;;;;4979096;28;20652;-80
2021/11/03 01:10:55;;;;;;;940.87;866.93;;;6.20;99.90;;;;;;4995191;28;20199;-81
2021/11/03 01:13:22;;;;;;;931.40;854.33;;;6.20;99.90;;;;;;5011904;28;20192;-81
2021/11/03 01:15:48;;;;;;;893.50;821.47;;;6.10;99.90;;;;;;5011449;28;20271;-81
2021/11/03 01:18:13;;;;;;;883.80;813.67;;;6.10;99.90;;;;;;4995241;28;20212;-81
2021/11/03 01:20:39;;;;;;;891.63;821.87;;;6.00;99.90;;;;;;4995135;28;20212;-80
2021/11/03 01:23:05;;;;;;;892.43;821.83;;;6.00;99.90;;;;;;4995301;28;20205;-81
2021/11/03 01:25:31;;;;;;;914.00;832.37;;;6.00;99.90;;;;;;5011685;28;20667;-81
2021/11/03 01:27:56;;;;;;;879.70;807.60;;;6.00;99.90;;;;;;5011145;28;20551;-81
2021/11/03 01:30:23;;;;;;;968.50;883.03;;;6.00;99.90;;;;;;4995477;28;20215;-80
2021/11/03 01:32:48;;;;;;;886.87;815.53;;;6.00;99.90;;;;;;4995120;28;20192;-81
2021/11/03 01:35:14;;;;;;;865.73;799.43;;;6.00;99.90;;;;;;5011619;28;20572;-80
2021/11/03 01:37:40;;;;;;;885.43;816.87;;;6.00;99.90;;;;;;4995019;28;20184;-79
2021/11/03 01:40:07;;;;;;;858.93;793.57;;;6.00;99.90;;;;;;5011400;28;20354;-81
2021/11/03 01:42:33;;;;;;;884.27;814.27;;;6.00;99.90;;;;;;4994646;28;20280;-81
2021/11/03 01:44:59;;;;;;;847.00;782.73;;;6.00;99.90;;;;;;4995160;28;20185;-81
2021/11/03 01:47:40;;;;;;;845.50;780.77;;;5.90;99.90;;;;;;5011003;28;20178;-80
2021/11/03 01:50:10;;;;;;;843.10;779.47;;;6.10;99.90;;;;;;4994408;28;20236;-81
2021/11/03 01:52:36;;;;;;;841.70;778.17;;;6.10;99.90;;;;;;4994424;28;20533;-81
2021/11/03 01:55:01;;;;;;;882.17;815.17;;;6.10;99.90;;;;;;4994582;28;20278;-81
2021/11/03 01:57:32;;;;;;;897.63;826.47;;;6.00;99.90;;;;;;4994439;28;20234;-80
2021/11/03 01:59:59;;;;;;;894.50;824.20;;;6.00;99.90;;;;;;5010554;28;20212;-81
2021/11/03 02:02:25;;;;;;;874.33;807.50;;;5.90;99.90;;;;;;4994394;28;20187;-81
2021/11/03 02:04:50;;;;;;;894.40;824.00;;;5.90;99.90;;;;;;5010719;28;20180;-81
2021/11/03 02:07:18;;;;;;;870.63;805.40;;;5.80;99.90;;;;;;4994453;28;20172;-81
2021/11/03 02:09:44;;;;;;;944.63;869.70;;;5.70;99.90;;;;;;5010272;28;20192;-82
2021/11/03 02:12:26;;;;;;;887.90;819.37;;;5.70;99.90;;;;;;5010458;28;20549;-80
2021/11/03 02:14:52;;;;;;;911.60;840.23;;;5.60;99.90;;;;;;5010189;28;20176;-81
2021/11/03 02:17:18;;;;;;;880.80;813.53;;;5.60;99.90;;;;;;4994477;28;20679;-79
2021/11/03 02:19:44;;;;;;;934.40;863.10;;;5.50;99.90;;;;;;4993909;28;20587;-80
2021/11/03 02:22:19;;;;;;;904.20;835.73;;;5.50;99.90;;;;;;4994335;28;20175;-81
2021/11/03 02:24:52;;;;;;;902.50;833.07;;;5.50;99.90;;;;;;4992905;28;20185;-82
2021/11/03 02:27:17;;;;;;;876.00;810.73;;;5.50;99.90;;;;;;4993418;28;20186;-81
2021/11/03 02:29:43;;;;;;;898.43;828.47;;;5.40;99.90;;;;;;4993480;28;20196;-81
2021/11/03 02:32:16;;;;;;;934.20;860.70;;;5.40;99.90;;;;;;4994100;28;20188;-80
2021/11/03 02:34:41;;;;;;;860.50;796.27;;;5.40;99.90;;;;;;5010106;28;20212;-81
2021/11/03 02:37:29;;;;;;;910.90;841.73;;;5.30;99.90;;;;;;4993863;28;20187;-81
2021/11/03 02:40:12;;;;;;;894.60;828.00;;;5.30;99.90;;;;;;4993069;28;20593;-80
2021/11/03 02:42:41;;;;;;;903.30;837.70;;;5.20;99.90;;;;;;4993923;28;20172;-81
2021/11/03 02:45:09;;;;;;;892.23;825.47;;;5.20;99.90;;;;;;4993313;28;20262;-80
2021/11/03 02:47:35;;;;;;;902.57;835.10;;;5.20;99.90;;;;;;4993063;28;20190;-81
2021/11/03 02:50:01;;;;;;;928.00;856.83;;;5.20;99.90;;;;;;4993374;28;20250;-80
2021/11/03 02:52:26;;;;;;;912.30;834.83;;;5.20;99.90;;;;;;4993483;28;20634;-80
2021/11/03 02:54:52;;;;;;;879.87;812.83;;;5.20;99.90;;;;;;5009594;28;20259;-79
2021/11/03 02:57:18;;;;;;;888.37;818.47;;;5.10;99.90;;;;;;4993444;28;20617;-81
2021/11/03 02:59:44;;;;;;;842.00;772.80;;;5.10;99.90;;;;;;5009467;28;20223;-81
2021/11/03 03:02:09;;;;;;;882.33;800.53;;;5.10;99.90;;;;;;5009351;28;20204;-81
2021/11/03 03:04:37;;;;;;;874.20;801.97;;;5.10;99.90;;;;;;4993727;28;20186;-80
2021/11/03 03:07:04;;;;;;;844.73;777.27;;;5.10;99.90;;;;;;5010203;28;20168;-80
2021/11/03 03:09:29;;;;;;;926.80;839.87;;;5.10;99.90;;;;;;4992330;28;20200;-81
2021/11/03 03:11:57;;;;;;;871.97;797.40;;;5.10;99.90;;;;;;5010028;28;20261;-80
2021/11/03 03:14:24;;;;;;;858.43;775.53;;;5.10;99.90;;;;;;4993221;28;20176;-81
2021/11/03 03:16:50;;;;;;;977.40;886.53;;;5.10;99.90;;;;;;4992540;28;20187;-81
2021/11/03 03:19:15;;;;;;;893.43;825.70;;;5.10;99.90;;;;;;4992346;28;20183;-80
2021/11/03 03:21:41;;;;;;;904.93;835.37;;;5.10;99.90;;;;;;4992908;28;20180;-81
2021/11/03 03:24:07;;;;;;;900.17;832.20;;;5.10;99.90;;;;;;5009182;28;20183;-80
2021/11/03 03:26:33;;;;;;;930.13;859.83;;;5.00;99.90;;;;;;4992784;28;20198;-81
2021/11/03 03:28:58;;;;;;;907.27;837.63;;;5.00;99.90;;;;;;4992529;28;20652;-81
2021/11/03 03:31:24;;;;;;;905.43;838.17;;;5.00;99.90;;;;;;4992976;28;20250;-80
2021/11/03 03:33:50;;;;;;;953.23;880.27;;;4.90;99.90;;;;;;4992709;28;20731;-80
2021/11/03 03:36:16;;;;;;;938.67;867.73;;;4.80;99.90;;;;;;4992814;28;20220;-81
2021/11/03 03:38:42;;;;;;;934.13;859.37;;;4.80;99.90;;;;;;4992762;28;20180;-81
2021/11/03 03:41:08;;;;;;;915.83;845.13;;;4.80;99.90;;;;;;4992491;28;20579;-80
2021/11/03 03:43:33;;;;;;;912.70;844.23;;;4.80;99.90;;;;;;5009346;28;20186;-78
2021/11/03 03:45:59;;;;;;;935.57;864.10;;;4.80;99.90;;;;;;5008883;28;20203;-81
2021/11/03 03:48:24;;;;;;;937.93;867.00;;;4.70;99.90;;;;;;5008794;28;20651;-81
2021/11/03 03:50:50;;;;;;;953.33;878.93;;;4.70;99.90;;;;;;4992576;28;20574;-80
2021/11/03 03:53:16;;;;;;;923.83;854.27;;;4.70;99.90;;;;;;5009029;28;20223;-80
2021/11/03 03:55:41;;;;;;;939.23;868.37;;;4.70;99.90;;;;;;4992532;28;20182;-79
2021/11/03 03:58:07;;;;;;;940.40;869.77;;;4.70;99.90;;;;;;4992124;28;20180;-81
2021/11/03 04:00:33;;;;;;;928.00;859.13;;;4.60;99.90;;;;;;4992332;28;20223;-81
2021/11/03 04:02:58;;;;;;;928.23;857.77;;;4.60;99.90;;;;;;4992129;28;20223;-81
2021/11/03 04:05:24;;;;;;;912.67;846.30;;;4.50;99.90;;;;;;4992509;28;20565;-81
2021/11/03 04:07:50;;;;;;;920.60;851.73;;;4.50;99.90;;;;;;4992250;28;20567;-80
2021/11/03 04:10:16;;;;;;;922.80;854.57;;;4.50;99.90;;;;;;4992826;28;20318;-81
2021/11/03 04:12:41;;;;;;;922.73;853.77;;;4.50;99.90;;;;;;4992293;28;20184;-81
2021/11/03 04:15:07;;;;;;;922.90;854.70;;;4.40;99.90;;;;;;4992373;28;20267;-80
2021/11/03 04:17:33;;;;;;;927.50;860.43;;;4.40;99.90;;;;;;4992471;28;20331;-80
2021/11/03 04:19:58;;;;;;;901.73;836.03;;;4.40;99.90;;;;;;5008683;28;20212;-81
2021/11/03 04:22:24;;;;;;;891.23;826.47;;;4.40;99.90;;;;;;4994086;28;20183;-80
2021/11/03 04:24:49;;;;;;;892.87;823.67;;;4.40;99.90;;;;;;5012235;28;20165;-81
2021/11/03 04:27:15;;;;;;;891.67;826.20;;;4.40;99.90;;;;;;4996510;28;20174;-81
2021/11/03 04:29:41;;;;;;;907.77;838.67;;;4.30;99.90;;;;;;4996048;28;20227;-80
2021/11/03 04:32:07;;;;;;;917.87;847.33;;;4.30;99.90;;;;;;4995849;28;20187;-80
2021/11/03 04:34:32;;;;;;;901.80;836.53;;;4.30;99.90;;;;;;5012454;28;20227;-81
2021/11/03 04:36:58;;;;;;;923.47;854.57;;;4.40;99.90;;;;;;5012061;28;20530;-81
2021/11/03 04:39:23;;;;;;;898.93;833.33;;;4.40;99.90;;;;;;4996071;28;20235;-81
2021/11/03 04:41:49;;;;;;;897.27;832.97;;;4.50;99.90;;;;;;5012448;28;20223;-80
2021/11/03 04:44:14;;;;;;;869.07;806.00;;;4.50;99.90;;;;;;5012163;28;20556;-80
2021/11/03 04:46:40;;;;;;;892.17;825.97;;;4.50;99.90;;;;;;4995574;28;20183;-81
2021/11/03 04:49:06;;;;;;;888.50;823.87;;;4.60;99.90;;;;;;4995371;28;20181;-81
2021/11/03 04:51:32;;;;;;;888.57;822.70;;;4.40;99.90;;;;;;5012087;28;20247;-80
2021/11/03 04:53:59;;;;;;;916.97;848.63;;;4.40;99.90;;;;;;4995984;28;20176;-80
2021/11/03 04:56:25;;;;;;;923.27;848.53;;;4.30;99.90;;;;;;5011884;28;20254;-81
2021/11/03 04:58:51;;;;;;;920.47;847.37;;;4.40;99.90;;;;;;4995515;28;20181;-79
2021/11/03 05:01:21;;;;;;;911.70;840.10;;;4.30;99.90;;;;;;5011638;28;20230;-80
2021/11/03 05:03:50;;;;;;;911.73;844.30;;;4.20;99.90;;;;;;4994734;28;20660;-81
2021/11/03 05:06:17;;;;;;;896.33;832.70;;;4.30;99.90;;;;;;5011718;28;20207;-81
2021/11/03 05:08:43;;;;;;;902.17;832.07;;;4.30;99.90;;;;;;4995227;28;20178;-79
2021/11/03 05:11:09;;;;;;;820.27;750.40;;;4.30;99.90;;;;;;4996491;28;20212;-81
2021/11/03 05:13:35;;;;;;;896.77;831.70;;;4.30;99.90;;;;;;4995351;28;20188;-81
2021/11/03 05:16:01;;;;;;;893.97;826.53;;;4.30;99.90;;;;;;4995725;28;20591;-81
2021/11/03 05:18:27;;;;;;;905.43;833.00;;;4.30;99.90;;;;;;5011261;28;20576;-81
2021/11/03 05:20:52;;;;;;;885.70;819.77;;;4.40;99.90;;;;;;4995187;28;20243;-81
2021/11/03 05:23:18;;;;;;;887.90;820.80;;;4.40;99.90;;;;;;5011596;28;20178;-81
2021/11/03 05:25:43;;;;;;;920.27;847.47;;;4.40;99.90;;;;;;4995208;28;20183;-79
2021/11/03 05:28:10;;;;;;;883.97;815.10;;;4.40;99.90;;;;;;4995417;28;20192;-81
2021/11/03 05:30:36;;;;;;;844.97;778.57;;;4.40;99.90;;;;;;4995006;28;20204;-80
2021/11/03 05:33:01;;;;;;;913.63;844.10;;;4.40;99.90;;;;;;5011334;28;20203;-80
2021/11/03 05:35:27;;;;;;;739.77;676.07;;;4.40;99.90;;;;;;4995563;28;20179;-81
2021/11/03 05:37:53;;;;;;;822.87;754.53;;;4.40;99.90;;;;;;4994851;28;20697;-81
2021/11/03 05:40:20;;;;;;;871.33;806.10;;;4.40;99.90;;;;;;4995526;28;20220;-80
2021/11/03 05:42:46;;;;;;;800.90;739.13;;;4.40;99.90;;;;;;4994687;28;20771;-80
2021/11/03 05:45:12;;;;;;;901.23;825.93;;;4.30;99.90;;;;;;4995022;28;20185;-81
2021/11/03 05:47:37;;;;;;;935.17;860.63;;;4.30;99.90;;;;;;4995017;28;20177;-81
2021/11/03 05:50:04;;;;;;;849.70;776.10;;;4.40;99.90;;;;;;4994199;28;20274;-81
2021/11/03 05:52:30;;;;;;;895.93;826.40;;;4.30;99.90;;;;;;4963654;28;20184;-80
2021/11/03 05:54:55;;;;;;;908.00;832.20;;;4.30;99.90;;;;;;4965064;28;20203;-81
2021/11/03 05:57:29;;;;;;;918.53;846.97;;;4.30;99.90;;;;;;4964362;28;20192;-80
2021/11/03 05:59:55;;;;;;;913.43;841.33;;;4.30;99.90;;;;;;4965319;28;20592;-80
2021/11/03 06:02:20;;;;;;;885.80;820.97;;;4.30;99.90;;;;;;4981704;28;20176;-78
2021/11/03 06:04:46;;;;;;;946.97;870.00;;;4.40;99.90;;;;;;4978052;28;20292;-82
2021/11/03 06:07:12;;;;;;;878.53;814.83;;;4.40;99.90;;;;;;5014221;28;20287;-80
2021/11/03 06:09:38;;;;;;;891.83;829.07;;;4.40;99.90;;;;;;4998679;28;20200;-81
2021/11/03 06:12:04;;;;;;;859.10;798.83;;;4.50;99.90;;;;;;4998517;28;20182;-80
2021/11/03 06:14:29;;;;;;;870.60;808.60;;;4.50;99.90;;;;;;4997755;28;21138;-79
2021/11/03 06:16:55;;;;;;;886.17;823.80;;;4.60;99.90;;;;;;4980989;28;20180;-79
2021/11/03 06:19:20;;;;;;;909.80;842.37;;;4.60;99.90;;;;;;4997416;28;20176;-78
2021/11/03 06:21:46;;;;;;;851.23;789.83;;;4.50;99.90;;;;;;4981627;28;20204;-81
2021/11/03 06:24:11;;;;;;;690.77;638.73;;;4.50;99.90;;;;;;4979472;28;20180;-80
2021/11/03 06:26:37;;;;;;;666.60;614.77;;;4.50;99.90;;;;;;4976628;28;20184;-81
2021/11/03 06:29:02;;;;;;;682.93;631.43;;;4.50;99.90;;;;;;5015049;28;20204;-81
2021/11/03 06:31:28;;;;;;;723.27;668.10;;;4.60;99.90;;;;;;5012186;28;20200;-81
2021/11/03 06:33:54;;;;;;;713.73;658.50;;;4.60;99.90;;;;;;5012552;28;20640;-80
2021/11/03 06:36:19;;;;;;;776.50;710.43;;;4.60;99.90;;;;;;5012324;28;20255;-81
2021/11/03 06:38:45;;;;;;;659.37;609.10;;;4.60;99.90;;;;;;4995735;28;20710;-77
2021/11/03 06:41:12;;;;;;;719.27;665.13;;;4.60;99.90;;;;;;4993902;28;20215;-82
2021/11/03 06:43:38;;;;;;;732.77;674.67;;;4.60;99.90;;;;;;4963253;28;20208;-77
2021/11/03 06:46:04;;;;;;;733.87;674.10;;;4.60;99.90;;;;;;4978448;28;20169;-78
2021/11/03 06:48:29;;;;;;;812.70;741.27;;;4.60;99.90;;;;;;4963352;28;20647;-79
2021/11/03 06:50:55;;;;;;;773.87;709.37;;;4.70;99.90;;;;;;4994204;28;20214;-81
2021/11/03 06:53:23;;;;;;;754.33;696.60;;;4.70;99.90;;;;;;4994618;28;20184;-81
2021/11/03 06:55:49;;;;;;;753.07;690.90;;;4.80;99.90;;;;;;4995993;28;20686;-80
2021/11/03 06:58:14;;;;;;;640.47;589.10;;;4.80;99.90;;;;;;4993254;28;20211;-77
2021/11/03 07:00:42;;;;;;;694.83;642.57;;;4.90;99.90;;;;;;4993206;28;20687;-80
2021/11/03 07:03:08;;;;;;;691.63;636.37;;;4.90;99.90;;;;;;4993388;28;20180;-79
2021/11/03 07:05:34;;;;;;;731.20;672.83;;;5.00;99.90;;;;;;4992725;28;20188;-83
2021/11/03 07:07:59;;;;;;;792.87;726.03;;;5.10;99.90;;;;;;4992134;28;20239;-84
2021/11/03 07:10:27;;;;;;;718.50;662.23;;;5.00;99.90;;;;;;4982047;28;20219;-84
2021/11/03 07:12:53;;;;;;;759.80;693.80;;;5.10;99.90;;;;;;4962908;28;20298;-79
2021/11/03 07:15:19;;;;;;;695.60;639.40;;;5.00;99.90;;;;;;4977546;28;20597;-81
2021/11/03 07:17:44;;;;;;;720.73;662.33;;;5.10;99.90;;;;;;4966777;28;20679;-81
2021/11/03 07:20:10;;;;;;;750.20;684.77;;;5.10;99.90;;;;;;5009497;28;20243;-81
2021/11/03 07:22:36;;;;;;;722.97;659.33;;;5.20;99.90;;;;;;4992756;28;20179;-82
2021/11/03 07:25:02;;;;;;;739.43;681.80;;;5.20;99.90;;;;;;4992974;28;20184;-82
2021/11/03 07:27:27;;;;;;;725.20;666.13;;;5.30;99.90;;;;;;4992793;28;20176;-83
2021/11/03 07:29:54;;;;;;;746.40;685.57;;;5.30;99.90;;;;;;4993823;28;20230;-88
2021/11/03 07:32:19;;;;;;;724.87;667.10;;;5.30;99.90;;;;;;4993611;28;20207;-81
2021/11/03 07:34:45;;;;;;;743.63;685.30;;;5.30;99.90;;;;;;4993489;28;20191;-79
2021/11/03 07:37:10;;;;;;;751.23;689.80;;;5.30;99.90;;;;;;4992461;28;20184;-82
2021/11/03 07:39:36;;;;;;;707.00;651.37;;;5.30;99.90;;;;;;4992033;28;20265;-78
2021/11/03 07:42:02;;;;;;;729.73;673.50;;;5.30;99.90;;;;;;4993539;28;20327;-81
2021/11/03 07:44:27;;;;;;;766.90;706.70;;;5.40;99.90;;;;;;5008935;28;20636;-84
2021/11/03 07:46:53;;;;;;;805.97;738.63;;;5.50;99.90;;;;;;4992305;28;20226;-81
2021/11/03 07:49:19;;;;;;;826.93;756.23;;;5.50;99.90;;;;;;4992242;28;20199;-82
2021/11/03 07:51:44;;;;;;;869.97;793.10;;;5.50;99.90;;;;;;4992580;28;20528;-82
2021/11/03 07:54:10;;;;;;;806.93;740.90;;;5.50;99.90;;;;;;5008870;28;20173;-82
2021/11/03 07:56:37;;;;;;;814.20;743.97;;;5.50;99.90;;;;;;4994699;28;20586;-84
2021/11/03 07:59:02;;;;;;;822.23;753.07;;;5.50;99.90;;;;;;4990203;28;20288;-79
2021/11/03 08:01:28;;;;;;;777.33;712.07;;;5.50;99.90;;;;;;4963427;28;20746;-77
2021/11/03 08:03:54;;;;;;;855.13;786.60;;;5.60;99.90;;;;;;4995848;28;20277;-83
2021/11/03 08:06:20;;;;;;;502.97;467.83;;;5.70;99.90;;;;;;4996060;28;20173;-80
2021/11/03 08:08:56;;;;;;;696.83;647.17;;;5.70;99.90;;;;;;4995619;28;20184;-80
2021/11/03 08:11:22;;;;;;;683.23;628.13;;;5.70;99.90;;;;;;4982486;28;20710;-81
2021/11/03 08:13:47;;;;;;;905.77;832.37;;;5.70;99.90;;;;;;4988420;28;20184;-80
2021/11/03 08:16:13;;;;;;;714.93;662.30;;;5.70;99.90;;;;;;4979493;28;20181;-80
2021/11/03 08:18:41;;;;;;;648.70;601.90;;;5.80;99.90;;;;;;4963411;28;20175;-80
2021/11/03 08:21:07;;;;;;;743.37;688.73;;;5.80;99.90;;;;;;4995148;28;20269;-81
2021/11/03 08:23:32;;;;;;;839.13;769.37;;;5.80;99.90;;;;;;4995929;28;20264;-80
2021/11/03 08:25:58;;;;;;;832.80;769.93;;;5.80;99.90;;;;;;4995937;28;20657;-78
2021/11/03 08:28:23;;;;;;;727.33;674.57;;;5.80;99.90;;;;;;4996089;28;20268;-78
2021/11/03 08:30:50;;;;;;;684.17;636.43;;;5.80;99.90;;;;;;4995815;28;20196;-79
2021/11/03 08:33:28;;;;;;;742.33;686.27;;;5.90;99.90;;;;;;4996334;28;20196;-78
2021/11/03 08:35:54;;;;;;;765.00;698.93;;;5.80;99.90;;;;;;4994914;28;20177;-80
2021/11/03 08:38:21;;;;;;;854.93;774.87;;;5.80;99.90;;;;;;4995900;28;20177;-79
2021/11/03 08:40:47;;;;;;;670.17;622.03;;;5.90;99.90;;;;;;5011669;28;20769;-78
2021/11/03 08:43:14;;;;;;;726.60;670.83;;;5.90;99.90;;;;;;5011954;28;20211;-79
2021/11/03 08:45:39;;;;;;;691.53;640.57;;;6.00;99.90;;;;;;5014318;28;20178;-78
2021/11/03 08:48:05;;;;;;;687.73;635.43;;;6.10;99.90;;;;;;4995321;28;20604;-78
2021/11/03 08:50:33;;;;;;;697.63;644.47;;;6.20;99.90;;;;;;4966410;28;20207;-78
2021/11/03 08:52:58;;;;;;;651.03;602.23;;;6.20;99.90;;;;;;4982427;28;20180;-79
2021/11/03 08:55:25;;;;;;;802.43;742.23;;;6.30;99.90;;;;;;4963465;28;20255;-81
2021/11/03 08:57:51;;;;;;;697.90;644.67;;;6.40;99.90;;;;;;4979749;28;20650;-80
2021/11/03 09:00:23;;;;;;;765.33;702.20;;;6.50;99.90;;;;;;4963087;28;20278;-79
2021/11/03 09:02:49;;;;;;;840.87;759.63;;;6.40;99.90;;;;;;4968364;28;20172;-80
2021/11/03 09:05:15;;;;;;;689.10;628.07;;;6.50;99.90;;;;;;4960911;28;20714;-80
2021/11/03 09:07:40;;;;;;;659.60;601.40;;;6.50;99.90;;;;;;4975931;28;20211;-82
2021/11/03 09:10:11;;;;;;;789.10;717.53;;;6.40;99.90;;;;;;4977055;28;20507;-81
2021/11/03 09:12:37;;;;;;;673.93;614.30;;;6.40;99.90;;;;;;4977510;28;20173;-80
2021/11/03 09:15:02;;;;;;;701.37;645.37;;;6.50;99.90;;;;;;4961116;28;20174;-80
2021/11/03 09:17:28;;;;;;;596.57;550.93;;;6.50;99.90;;;;;;4977374;28;20195;-81
2021/11/03 09:19:55;;;;;;;599.50;554.30;;;6.60;99.90;;;;;;4980554;28;20213;-80
2021/11/03 09:22:21;;;;;;;835.07;768.87;;;6.70;99.90;;;;;;4962470;28;20304;-80
2021/11/03 09:24:46;;;;;;;759.67;702.57;;;6.70;99.90;;;;;;4962230;28;20172;-81
2021/11/03 09:27:14;;;;;;;803.30;739.90;;;6.80;99.90;;;;;;4962179;28;20183;-81
2021/11/03 09:29:43;;;;;;;721.33;665.00;;;6.70;99.90;;;;;;4962346;28;20228;-80
2021/11/03 09:32:12;;;;;;;716.73;659.67;;;6.80;99.90;;;;;;4978513;28;20185;-80
2021/11/03 09:34:39;;;;;;;790.30;727.73;;;6.80;99.90;;;;;;4962485;28;20195;-80
2021/11/03 09:37:06;;;;;;;824.87;758.97;;;6.80;99.90;;;;;;4978391;28;20231;-79
2021/11/03 09:39:32;;;;;;;722.47;665.90;;;6.80;99.90;;;;;;4961971;28;20201;-80
2021/11/03 09:41:57;;;;;;;808.13;745.87;;;6.80;99.90;;;;;;4994006;28;20184;-79
2021/11/03 09:44:30;;;;;;;811.70;746.40;;;6.80;99.90;;;;;;4978428;28;20191;-80
2021/11/03 09:47:09;;;;;;;939.90;861.30;;;6.90;99.90;;;;;;4978553;28;20179;-80
2021/11/03 09:49:40;;;;;;;833.77;767.90;;;6.90;99.90;;;;;;4979519;28;20703;-79
2021/11/03 09:52:19;;;;;;;795.93;734.60;;;6.90;99.90;;;;;;4962639;28;20196;-79
2021/11/03 09:54:48;;;;;;;804.03;743.33;;;7.00;99.90;;;;;;4994231;28;20184;-79
2021/11/03 09:57:22;;;;;;;825.13;761.70;;;7.00;99.90;;;;;;4962420;28;20644;-78
2021/11/03 10:00:17;;;;;;;925.53;848.73;;;7.40;99.90;;;;;;4977304;28;20212;-79
2021/11/03 10:03:01;;;;;;;1013.00;924.20;;;7.20;99.90;;;;;;4979873;28;20188;-79
2021/11/03 10:05:41;;;;;;;903.30;829.03;;;7.20;99.90;;;;;;4995880;28;20184;-82
2021/11/03 10:08:14;;;;;;;882.67;809.70;;;7.20;99.90;;;;;;4993852;28;20615;-79
2021/11/03 10:11:01;;;;;;;797.00;737.00;;;7.20;99.90;;;;;;4963112;28;20208;-79
2021/11/03 10:13:33;;;;;;;795.70;733.90;;;7.10;99.90;;;;;;4963602;28;20173;-79
2021/11/03 10:16:05;;;;;;;792.90;731.83;;;7.20;99.90;;;;;;4962047;28;20184;-79
2021/11/03 10:18:35;;;;;;;971.33;894.87;;;7.30;99.90;;;;;;4978294;28;20267;-79
2021/11/03 10:21:12;;;;;;;1043.73;956.97;;;7.30;99.90;;;;;;4977241;28;20204;-78
2021/11/03 10:23:37;;;;;;;1122.57;999.90;;;7.40;99.90;;;;;;4978661;28;20160;-79
2021/11/03 10:26:08;;;;;;;1101.60;999.87;;;7.40;99.90;;;;;;4977357;28;20176;-79
2021/11/03 10:28:43;;;;;;;1185.90;999.90;;;7.50;99.90;;;;;;4961420;28;20222;-79
2021/11/03 10:31:24;;;;;;;1154.73;999.90;;;7.50;99.90;;;;;;4962405;28;20239;-79
2021/11/03 10:33:57;;;;;;;1099.57;996.30;;;7.60;99.90;;;;;;4961908;28;20659;-79
2021/11/03 10:36:24;;;;;;;1084.63;986.43;;;7.60;99.90;;;;;;4978593;28;20200;-79
2021/11/03 10:38:56;;;;;;;1052.70;962.37;;;7.60;99.90;;;;;;4961377;28;20208;-80
2021/11/03 10:41:27;;;;;;;1035.93;950.10;;;7.60;99.90;;;;;;4977670;28;20705;-79
2021/11/03 10:44:08;;;;;;;1109.67;999.90;;;7.60;99.90;;;;;;4960932;28;20164;-81
2021/11/03 10:46:47;;;;;;;1092.43;994.03;;;7.60;99.90;;;;;;4993705;28;20209;-80
2021/11/03 10:49:23;;;;;;;1177.97;999.90;;;7.50;99.90;;;;;;4977126;28;20175;-79
2021/11/03 10:51:58;;;;;;;1144.07;999.90;;;7.60;99.90;;;;;;4971789;28;20619;-79
2021/11/03 10:54:35;;;;;;;1115.00;999.90;;;7.60;99.90;;;;;;4982099;28;20230;-79
2021/11/03 10:57:14;;;;;;;1070.67;979.43;;;7.70;99.90;;;;;;4992684;28;20219;-79
2021/11/03 10:59:50;;;;;;;994.60;910.93;;;7.70;99.90;;;;;;4992669;28;20211;-80
2021/11/03 11:02:28;;;;;;;971.67;891.23;;;7.70;99.90;;;;;;4982443;28;20720;-80
2021/11/03 11:04:55;;;;;;;1008.37;924.90;;;7.80;99.90;;;;;;4969530;28;20174;-79
2021/11/03 11:07:36;;;;;;;1061.77;970.53;;;7.70;99.90;;;;;;4968545;28;20312;-79
2021/11/03 11:10:18;;;;;;;1048.50;961.27;;;7.70;99.90;;;;;;4990946;28;20196;-80
2021/11/03 11:12:45;;;;;;;1045.87;959.83;;;7.70;99.90;;;;;;4973632;28;20652;-80
2021/11/03 11:15:14;;;;;;;1079.93;990.70;;;7.80;99.90;;;;;;4982272;28;20231;-79
2021/11/03 11:18:05;;;;;;;1078.77;987.80;;;7.80;99.90;;;;;;4993564;28;20183;-80
2021/11/03 11:20:42;;;;;;;1031.77;946.13;;;7.80;99.90;;;;;;4990143;28;20573;-79
2021/11/03 11:23:22;;;;;;;1044.00;956.33;;;7.80;99.90;;;;;;4983249;28;20166;-79
2021/11/03 11:26:02;;;;;;;1065.57;976.83;;;7.80;99.90;;;;;;4960859;28;20259;-79
2021/11/03 11:28:36;;;;;;;1047.30;955.97;;;7.90;99.90;;;;;;4980375;28;20190;-79
2021/11/03 11:31:34;;;;;;;1034.20;945.50;;;7.90;99.90;;;;;;4998666;28;20202;-80
2021/11/03 11:34:21;;;;;;;1089.30;998.33;;;8.00;99.90;;;;;;4981402;28;20731;-80
2021/11/03 11:36:56;;;;;;;1090.70;998.83;;;8.00;99.90;;;;;;4996916;28;20180;-80
2021/11/03 11:39:32;;;;;;;1132.57;999.90;;;8.00;99.90;;;;;;4986560;28;20599;-79
2021/11/03 11:42:05;;;;;;;1151.37;999.90;;;8.00;99.90;;;;;;4996248;28;20205;-79
2021/11/03 11:44:35;;;;;;;1188.13;999.90;;;8.10;99.90;;;;;;4980057;28;20186;-79
2021/11/03 11:47:06;;;;;;;1157.13;999.90;;;8.10;99.90;;;;;;4990060;28;20179;-79
2021/11/03 11:49:34;;;;;;;1172.60;999.90;;;8.20;99.90;;;;;;5012272;28;20202;-80
2021/11/03 11:52:15;;;;;;;1149.27;999.90;;;8.20;99.90;;;;;;4998128;28;20547;-80
2021/11/03 11:55:00;;;;;;;1173.03;999.90;;;8.30;99.90;;;;;;4965474;28;20177;-80
2021/11/03 11:57:26;;;;;;;1176.23;999.90;;;8.30;99.90;;;;;;4988656;28;20180;-80
2021/11/03 12:00:09;;;;;;;1195.30;999.90;;;8.30;99.90;;;;;;4989476;28;20332;-79
2021/11/03 12:03:00;;;;;;;1155.53;999.90;;;8.30;99.90;;;;;;4995614;28;20174;-80
2021/11/03 12:05:45;;;;;;;1180.73;999.90;;;8.40;99.90;;;;;;4986140;28;20215;-80
2021/11/03 12:08:14;;;;;;;1184.00;999.90;;;8.30;99.90;;;;;;5011967;28;20183;-79
2021/11/03 12:10:55;;;;;;;1165.20;999.90;;;8.20;99.90;;;;;;5012208;28;20672;-80
2021/11/03 12:13:51;;;;;;;1187.93;999.90;;;8.20;99.90;;;;;;5011906;28;20179;-79
2021/11/03 12:16:21;;;;;;;1180.87;999.90;;;8.20;99.90;;;;;;4988340;28;20233;-79
2021/11/03 12:18:51;;;;;;;1145.27;999.90;;;8.20;99.90;;;;;;4995433;28;20658;-80
2021/11/03 12:21:23;;;;;;;1187.23;999.90;;;8.20;99.90;;;;;;4979566;28;20211;-80